Sandweiler, Luxembourg
Current Conditions -  °F | °C
As of 4:20 AM on Monday 22 Dec 2014 (Local Time) from ELLX Reporting Station
NA  
Wind Chill: 33°   Ceiling: NA
Heat Index: 41°   Visibility: 4mi
Dew Point: 41°   Wind: 16mph
Humidity: 100%   Direction: 230°SW
Pressure: 30.3"   Gusts: NA
Location:  49.61°N, 6.22°E
Report Text: ELLX 220320Z AUTO 23014KT 190V260 7000 NDV 05/05 Q1026
Loading
Personal Weather Stations






























Interactive Weather Map New forecast layout! Learn more

10-Day Weather Forecast

Advertisements
Track Severe Weather on mobile